sensor_id;sensor_type;location;lat;lon;timestamp;P1;durP1;ratioP1;P2;durP2;ratioP2
68089;SDS011;54880;50.986;6.990;2023-05-14T00:02:05;15.20;;;9.17;;
68089;SDS011;54880;50.986;6.990;2023-05-14T00:04:30;17.47;;;9.73;;
68089;SDS011;54880;50.986;6.990;2023-05-14T00:06:56;14.90;;;9.00;;
68089;SDS011;54880;50.986;6.990;2023-05-14T00:09:21;14.83;;;8.73;;
68089;SDS011;54880;50.986;6.990;2023-05-14T00:11:46;14.80;;;9.13;;
68089;SDS011;54880;50.986;6.990;2023-05-14T00:14:12;14.13;;;8.47;;
68089;SDS011;54880;50.986;6.990;2023-05-14T00:16:37;16.65;;;9.25;;
68089;SDS011;54880;50.986;6.990;2023-05-14T00:19:02;14.05;;;9.15;;
68089;SDS011;54880;50.986;6.990;2023-05-14T00:21:27;17.02;;;8.85;;
68089;SDS011;54880;50.986;6.990;2023-05-14T00:23:53;15.27;;;8.40;;
68089;SDS011;54880;50.986;6.990;2023-05-14T00:26:18;14.30;;;8.47;;
68089;SDS011;54880;50.986;6.990;2023-05-14T00:28:45;13.50;;;8.90;;
68089;SDS011;54880;50.986;6.990;2023-05-14T00:31:10;16.00;;;8.53;;
68089;SDS011;54880;50.986;6.990;2023-05-14T00:33:36;13.27;;;8.13;;
68089;SDS011;54880;50.986;6.990;2023-05-14T00:36:01;14.80;;;9.00;;
68089;SDS011;54880;50.986;6.990;2023-05-14T00:38:27;16.30;;;8.97;;
68089;SDS011;54880;50.986;6.990;2023-05-14T00:40:52;14.90;;;8.97;;
68089;SDS011;54880;50.986;6.990;2023-05-14T00:43:18;15.73;;;9.43;;
68089;SDS011;54880;50.986;6.990;2023-05-14T00:45:43;18.02;;;8.13;;
68089;SDS011;54880;50.986;6.990;2023-05-14T00:48:09;13.83;;;8.10;;
68089;SDS011;54880;50.986;6.990;2023-05-14T00:50:34;14.90;;;9.03;;
68089;SDS011;54880;50.986;6.990;2023-05-14T00:52:59;14.73;;;8.60;;
68089;SDS011;54880;50.986;6.990;2023-05-14T00:55:25;16.83;;;9.07;;
68089;SDS011;54880;50.986;6.990;2023-05-14T00:57:50;13.45;;;8.43;;
68089;SDS011;54880;50.986;6.990;2023-05-14T01:00:17;16.15;;;8.68;;
68089;SDS011;54880;50.986;6.990;2023-05-14T01:02:42;13.37;;;8.80;;
68089;SDS011;54880;50.986;6.990;2023-05-14T01:05:07;13.43;;;8.77;;
68089;SDS011;54880;50.986;6.990;2023-05-14T01:10:05;13.43;;;8.85;;
68089;SDS011;54880;50.986;6.990;2023-05-14T01:12:37;13.73;;;9.00;;
68089;SDS011;54880;50.986;6.990;2023-05-14T01:15:11;14.68;;;8.70;;
68089;SDS011;54880;50.986;6.990;2023-05-14T01:17:39;12.83;;;8.40;;
68089;SDS011;54880;50.986;6.990;2023-05-14T01:20:06;14.05;;;8.77;;
68089;SDS011;54880;50.986;6.990;2023-05-14T01:22:32;15.48;;;8.75;;
68089;SDS011;54880;50.986;6.990;2023-05-14T01:24:57;17.60;;;9.10;;
68089;SDS011;54880;50.986;6.990;2023-05-14T01:27:37;14.77;;;9.13;;
68089;SDS011;54880;50.986;6.990;2023-05-14T01:32:33;15.40;;;9.33;;
68089;SDS011;54880;50.986;6.990;2023-05-14T01:34:59;14.75;;;9.43;;
68089;SDS011;54880;50.986;6.990;2023-05-14T01:37:25;17.20;;;8.77;;
68089;SDS011;54880;50.986;6.990;2023-05-14T01:39:51;15.13;;;9.07;;
68089;SDS011;54880;50.986;6.990;2023-05-14T01:42:16;14.63;;;8.83;;
68089;SDS011;54880;50.986;6.990;2023-05-14T01:44:42;14.98;;;9.02;;
68089;SDS011;54880;50.986;6.990;2023-05-14T01:47:07;15.80;;;9.60;;
68089;SDS011;54880;50.986;6.990;2023-05-14T01:49:32;18.23;;;9.60;;
68089;SDS011;54880;50.986;6.990;2023-05-14T01:51:58;13.77;;;8.77;;
68089;SDS011;54880;50.986;6.990;2023-05-14T01:54:23;14.17;;;9.10;;
68089;SDS011;54880;50.986;6.990;2023-05-14T01:56:48;14.53;;;9.30;;
68089;SDS011;54880;50.986;6.990;2023-05-14T01:59:14;14.67;;;9.67;;
68089;SDS011;54880;50.986;6.990;2023-05-14T02:01:40;15.82;;;9.50;;
68089;SDS011;54880;50.986;6.990;2023-05-14T02:04:05;14.93;;;9.80;;
68089;SDS011;54880;50.986;6.990;2023-05-14T02:06:30;17.93;;;10.07;;
68089;SDS011;54880;50.986;6.990;2023-05-14T02:08:56;15.57;;;9.70;;
68089;SDS011;54880;50.986;6.990;2023-05-14T02:11:21;15.35;;;9.30;;
68089;SDS011;54880;50.986;6.990;2023-05-14T02:13:46;14.93;;;9.33;;
68089;SDS011;54880;50.986;6.990;2023-05-14T02:16:12;17.30;;;9.70;;
68089;SDS011;54880;50.986;6.990;2023-05-14T02:18:37;17.30;;;9.70;;
68089;SDS011;54880;50.986;6.990;2023-05-14T02:21:02;15.47;;;9.40;;
68089;SDS011;54880;50.986;6.990;2023-05-14T02:23:28;15.53;;;9.10;;
68089;SDS011;54880;50.986;6.990;2023-05-14T02:25:53;16.20;;;8.63;;
68089;SDS011;54880;50.986;6.990;2023-05-14T02:28:18;13.53;;;8.10;;
68089;SDS011;54880;50.986;6.990;2023-05-14T02:30:43;15.27;;;8.73;;
68089;SDS011;54880;50.986;6.990;2023-05-14T02:33:09;13.37;;;8.27;;
68089;SDS011;54880;50.986;6.990;2023-05-14T02:35:34;14.90;;;8.67;;
68089;SDS011;54880;50.986;6.990;2023-05-14T02:38:00;15.40;;;8.88;;
68089;SDS011;54880;50.986;6.990;2023-05-14T02:40:26;16.85;;;8.73;;
68089;SDS011;54880;50.986;6.990;2023-05-14T02:42:51;14.13;;;9.23;;
68089;SDS011;54880;50.986;6.990;2023-05-14T02:45:17;16.87;;;9.20;;
68089;SDS011;54880;50.986;6.990;2023-05-14T02:47:42;14.30;;;8.73;;
68089;SDS011;54880;50.986;6.990;2023-05-14T02:50:07;16.03;;;8.67;;
68089;SDS011;54880;50.986;6.990;2023-05-14T02:52:33;15.90;;;8.77;;
68089;SDS011;54880;50.986;6.990;2023-05-14T02:54:58;13.53;;;8.67;;
68089;SDS011;54880;50.986;6.990;2023-05-14T02:57:23;15.20;;;8.23;;
68089;SDS011;54880;50.986;6.990;2023-05-14T02:59:49;13.23;;;8.13;;
68089;SDS011;54880;50.986;6.990;2023-05-14T03:02:14;15.40;;;8.53;;
68089;SDS011;54880;50.986;6.990;2023-05-14T03:04:39;14.17;;;8.23;;
68089;SDS011;54880;50.986;6.990;2023-05-14T03:07:04;13.70;;;9.00;;
68089;SDS011;54880;50.986;6.990;2023-05-14T03:09:30;14.87;;;7.73;;
68089;SDS011;54880;50.986;6.990;2023-05-14T03:11:55;16.07;;;8.20;;
68089;SDS011;54880;50.986;6.990;2023-05-14T03:14:20;14.63;;;8.47;;
68089;SDS011;54880;50.986;6.990;2023-05-14T03:16:46;15.93;;;8.20;;
68089;SDS011;54880;50.986;6.990;2023-05-14T03:19:11;13.82;;;8.05;;
68089;SDS011;54880;50.986;6.990;2023-05-14T03:21:36;14.15;;;8.43;;
68089;SDS011;54880;50.986;6.990;2023-05-14T03:24:02;13.40;;;7.88;;
68089;SDS011;54880;50.986;6.990;2023-05-14T03:26:27;13.30;;;7.57;;
68089;SDS011;54880;50.986;6.990;2023-05-14T03:28:52;13.13;;;7.97;;
68089;SDS011;54880;50.986;6.990;2023-05-14T03:31:17;13.50;;;7.63;;
68089;SDS011;54880;50.986;6.990;2023-05-14T03:33:43;13.93;;;7.97;;
68089;SDS011;54880;50.986;6.990;2023-05-14T03:36:08;12.93;;;8.03;;
68089;SDS011;54880;50.986;6.990;2023-05-14T03:38:33;15.43;;;7.47;;
68089;SDS011;54880;50.986;6.990;2023-05-14T03:40:58;12.27;;;8.10;;
68089;SDS011;54880;50.986;6.990;2023-05-14T03:43:24;13.07;;;7.93;;
68089;SDS011;54880;50.986;6.990;2023-05-14T03:45:50;14.50;;;7.38;;
68089;SDS011;54880;50.986;6.990;2023-05-14T03:48:17;14.83;;;8.10;;
68089;SDS011;54880;50.986;6.990;2023-05-14T03:50:42;15.18;;;8.38;;
68089;SDS011;54880;50.986;6.990;2023-05-14T03:53:07;10.87;;;7.60;;
68089;SDS011;54880;50.986;6.990;2023-05-14T03:55:33;13.90;;;8.07;;
68089;SDS011;54880;50.986;6.990;2023-05-14T03:57:58;11.27;;;7.60;;
68089;SDS011;54880;50.986;6.990;2023-05-14T04:00:23;14.30;;;7.40;;
68089;SDS011;54880;50.986;6.990;2023-05-14T04:02:50;13.13;;;7.25;;
68089;SDS011;54880;50.986;6.990;2023-05-14T04:05:16;12.30;;;7.73;;
68089;SDS011;54880;50.986;6.990;2023-05-14T04:07:41;15.23;;;7.50;;
68089;SDS011;54880;50.986;6.990;2023-05-14T04:10:06;15.37;;;7.67;;
68089;SDS011;54880;50.986;6.990;2023-05-14T04:12:34;12.70;;;7.22;;
68089;SDS011;54880;50.986;6.990;2023-05-14T04:14:59;12.10;;;7.57;;
68089;SDS011;54880;50.986;6.990;2023-05-14T04:17:25;12.85;;;7.78;;
68089;SDS011;54880;50.986;6.990;2023-05-14T04:19:51;13.30;;;7.27;;
68089;SDS011;54880;50.986;6.990;2023-05-14T04:22:16;12.27;;;7.47;;
68089;SDS011;54880;50.986;6.990;2023-05-14T04:24:41;15.43;;;7.30;;
68089;SDS011;54880;50.986;6.990;2023-05-14T04:27:07;15.93;;;8.57;;
68089;SDS011;54880;50.986;6.990;2023-05-14T04:29:32;12.90;;;7.87;;
68089;SDS011;54880;50.986;6.990;2023-05-14T04:31:57;11.70;;;7.10;;
68089;SDS011;54880;50.986;6.990;2023-05-14T04:34:22;15.20;;;8.20;;
68089;SDS011;54880;50.986;6.990;2023-05-14T04:36:48;12.70;;;7.90;;
68089;SDS011;54880;50.986;6.990;2023-05-14T04:39:13;12.17;;;7.97;;
68089;SDS011;54880;50.986;6.990;2023-05-14T04:41:39;14.17;;;8.20;;
68089;SDS011;54880;50.986;6.990;2023-05-14T04:44:04;14.15;;;8.00;;
68089;SDS011;54880;50.986;6.990;2023-05-14T04:46:30;14.83;;;8.27;;
68089;SDS011;54880;50.986;6.990;2023-05-14T04:48:55;13.30;;;8.20;;
68089;SDS011;54880;50.986;6.990;2023-05-14T04:51:21;14.10;;;7.63;;
68089;SDS011;54880;50.986;6.990;2023-05-14T04:53:46;14.13;;;7.82;;
68089;SDS011;54880;50.986;6.990;2023-05-14T04:56:11;12.77;;;7.50;;
68089;SDS011;54880;50.986;6.990;2023-05-14T04:58:36;12.87;;;7.87;;
68089;SDS011;54880;50.986;6.990;2023-05-14T05:01:03;14.20;;;7.63;;
68089;SDS011;54880;50.986;6.990;2023-05-14T05:03:29;13.83;;;7.70;;
68089;SDS011;54880;50.986;6.990;2023-05-14T05:05:55;13.23;;;7.75;;
68089;SDS011;54880;50.986;6.990;2023-05-14T05:08:20;13.03;;;7.93;;
68089;SDS011;54880;50.986;6.990;2023-05-14T05:10:45;15.83;;;7.83;;
68089;SDS011;54880;50.986;6.990;2023-05-14T05:13:10;13.97;;;9.23;;
68089;SDS011;54880;50.986;6.990;2023-05-14T05:15:36;12.80;;;8.43;;
68089;SDS011;54880;50.986;6.990;2023-05-14T05:18:01;14.33;;;8.90;;
68089;SDS011;54880;50.986;6.990;2023-05-14T05:20:26;17.87;;;9.67;;
68089;SDS011;54880;50.986;6.990;2023-05-14T05:22:52;15.48;;;10.35;;
68089;SDS011;54880;50.986;6.990;2023-05-14T05:25:17;14.93;;;9.47;;
68089;SDS011;54880;50.986;6.990;2023-05-14T05:27:42;17.20;;;10.20;;
68089;SDS011;54880;50.986;6.990;2023-05-14T05:30:08;14.47;;;9.10;;
68089;SDS011;54880;50.986;6.990;2023-05-14T05:32:33;13.67;;;8.90;;
68089;SDS011;54880;50.986;6.990;2023-05-14T05:34:58;15.00;;;9.13;;
68089;SDS011;54880;50.986;6.990;2023-05-14T05:37:24;13.97;;;8.60;;
68089;SDS011;54880;50.986;6.990;2023-05-14T05:39:49;15.20;;;8.70;;
68089;SDS011;54880;50.986;6.990;2023-05-14T05:42:14;13.03;;;8.77;;
68089;SDS011;54880;50.986;6.990;2023-05-14T05:44:40;12.20;;;8.83;;
68089;SDS011;54880;50.986;6.990;2023-05-14T05:47:05;13.87;;;8.47;;
68089;SDS011;54880;50.986;6.990;2023-05-14T05:49:30;12.17;;;8.53;;
68089;SDS011;54880;50.986;6.990;2023-05-14T05:51:55;13.15;;;8.20;;
68089;SDS011;54880;50.986;6.990;2023-05-14T05:54:22;13.60;;;9.00;;
68089;SDS011;54880;50.986;6.990;2023-05-14T05:56:47;13.80;;;8.80;;
68089;SDS011;54880;50.986;6.990;2023-05-14T05:59:13;13.67;;;8.77;;
68089;SDS011;54880;50.986;6.990;2023-05-14T06:01:38;13.40;;;9.00;;
68089;SDS011;54880;50.986;6.990;2023-05-14T06:04:05;14.63;;;9.00;;
68089;SDS011;54880;50.986;6.990;2023-05-14T06:06:30;14.90;;;10.07;;
68089;SDS011;54880;50.986;6.990;2023-05-14T06:08:56;13.70;;;9.50;;
68089;SDS011;54880;50.986;6.990;2023-05-14T06:11:22;14.13;;;9.70;;
68089;SDS011;54880;50.986;6.990;2023-05-14T06:13:47;16.07;;;9.90;;
68089;SDS011;54880;50.986;6.990;2023-05-14T06:16:12;17.70;;;9.90;;
68089;SDS011;54880;50.986;6.990;2023-05-14T06:18:37;16.33;;;9.90;;
68089;SDS011;54880;50.986;6.990;2023-05-14T06:21:02;16.90;;;9.80;;
68089;SDS011;54880;50.986;6.990;2023-05-14T06:23:28;16.65;;;10.73;;
68089;SDS011;54880;50.986;6.990;2023-05-14T06:25:53;15.70;;;9.85;;
68089;SDS011;54880;50.986;6.990;2023-05-14T06:28:18;14.10;;;9.97;;
68089;SDS011;54880;50.986;6.990;2023-05-14T06:30:44;14.77;;;10.20;;
68089;SDS011;54880;50.986;6.990;2023-05-14T06:33:09;18.47;;;11.43;;
68089;SDS011;54880;50.986;6.990;2023-05-14T06:35:36;19.73;;;11.00;;
68089;SDS011;54880;50.986;6.990;2023-05-14T06:38:02;16.07;;;9.90;;
68089;SDS011;54880;50.986;6.990;2023-05-14T06:40:27;16.13;;;10.07;;
68089;SDS011;54880;50.986;6.990;2023-05-14T06:42:52;16.63;;;10.43;;
68089;SDS011;54880;50.986;6.990;2023-05-14T06:45:18;16.90;;;10.80;;
68089;SDS011;54880;50.986;6.990;2023-05-14T06:47:43;16.70;;;10.70;;
68089;SDS011;54880;50.986;6.990;2023-05-14T06:50:08;16.97;;;11.13;;
68089;SDS011;54880;50.986;6.990;2023-05-14T06:52:35;18.00;;;11.97;;
68089;SDS011;54880;50.986;6.990;2023-05-14T06:55:00;18.52;;;11.68;;
68089;SDS011;54880;50.986;6.990;2023-05-14T06:57:25;21.43;;;12.43;;
68089;SDS011;54880;50.986;6.990;2023-05-14T06:59:50;20.10;;;11.50;;
68089;SDS011;54880;50.986;6.990;2023-05-14T07:02:16;19.57;;;11.80;;
68089;SDS011;54880;50.986;6.990;2023-05-14T07:04:41;17.43;;;12.00;;
68089;SDS011;54880;50.986;6.990;2023-05-14T07:07:06;20.23;;;12.57;;
68089;SDS011;54880;50.986;6.990;2023-05-14T07:09:33;23.45;;;12.10;;
68089;SDS011;54880;50.986;6.990;2023-05-14T07:11:58;18.03;;;12.40;;
68089;SDS011;54880;50.986;6.990;2023-05-14T07:14:23;18.80;;;12.60;;
68089;SDS011;54880;50.986;6.990;2023-05-14T07:16:48;18.17;;;12.27;;
68089;SDS011;54880;50.986;6.990;2023-05-14T07:19:14;19.07;;;12.40;;
68089;SDS011;54880;50.986;6.990;2023-05-14T07:21:39;19.90;;;12.07;;
68089;SDS011;54880;50.986;6.990;2023-05-14T07:24:04;21.20;;;13.00;;
68089;SDS011;54880;50.986;6.990;2023-05-14T07:26:29;18.90;;;12.77;;
68089;SDS011;54880;50.986;6.990;2023-05-14T07:28:55;20.98;;;12.43;;
68089;SDS011;54880;50.986;6.990;2023-05-14T07:31:20;19.97;;;12.60;;
68089;SDS011;54880;50.986;6.990;2023-05-14T07:33:46;21.80;;;12.73;;
68089;SDS011;54880;50.986;6.990;2023-05-14T07:36:11;20.23;;;12.37;;
68089;SDS011;54880;50.986;6.990;2023-05-14T07:38:36;18.33;;;11.63;;
68089;SDS011;54880;50.986;6.990;2023-05-14T07:41:01;18.23;;;12.53;;
68089;SDS011;54880;50.986;6.990;2023-05-14T07:43:27;17.33;;;10.50;;
68089;SDS011;54880;50.986;6.990;2023-05-14T07:45:52;16.73;;;10.90;;
68089;SDS011;54880;50.986;6.990;2023-05-14T07:48:17;19.83;;;10.83;;
68089;SDS011;54880;50.986;6.990;2023-05-14T07:50:42;19.20;;;11.00;;
68089;SDS011;54880;50.986;6.990;2023-05-14T07:53:08;14.90;;;10.27;;
68089;SDS011;54880;50.986;6.990;2023-05-14T07:55:33;13.83;;;9.37;;
68089;SDS011;54880;50.986;6.990;2023-05-14T07:57:58;14.87;;;9.83;;
68089;SDS011;54880;50.986;6.990;2023-05-14T08:00:24;15.73;;;9.27;;
68089;SDS011;54880;50.986;6.990;2023-05-14T08:02:49;12.73;;;8.03;;
68089;SDS011;54880;50.986;6.990;2023-05-14T08:05:15;11.70;;;8.18;;
68089;SDS011;54880;50.986;6.990;2023-05-14T08:07:40;12.10;;;7.47;;
68089;SDS011;54880;50.986;6.990;2023-05-14T08:10:06;11.53;;;6.63;;
68089;SDS011;54880;50.986;6.990;2023-05-14T08:12:32;11.43;;;6.07;;
68089;SDS011;54880;50.986;6.990;2023-05-14T08:14:57;13.37;;;7.00;;
68089;SDS011;54880;50.986;6.990;2023-05-14T08:17:22;12.77;;;7.40;;
68089;SDS011;54880;50.986;6.990;2023-05-14T08:19:47;9.80;;;6.70;;
68089;SDS011;54880;50.986;6.990;2023-05-14T08:22:13;11.27;;;7.20;;
68089;SDS011;54880;50.986;6.990;2023-05-14T08:24:39;14.32;;;6.97;;
68089;SDS011;54880;50.986;6.990;2023-05-14T08:27:04;10.32;;;5.78;;
68089;SDS011;54880;50.986;6.990;2023-05-14T08:29:30;10.63;;;6.10;;
68089;SDS011;54880;50.986;6.990;2023-05-14T08:31:55;9.20;;;5.43;;
68089;SDS011;54880;50.986;6.990;2023-05-14T08:34:21;11.07;;;5.35;;
68089;SDS011;54880;50.986;6.990;2023-05-14T08:36:46;9.50;;;6.00;;
68089;SDS011;54880;50.986;6.990;2023-05-14T08:39:11;13.63;;;6.20;;
68089;SDS011;54880;50.986;6.990;2023-05-14T08:41:37;10.40;;;6.40;;
68089;SDS011;54880;50.986;6.990;2023-05-14T08:44:13;10.15;;;5.68;;
68089;SDS011;54880;50.986;6.990;2023-05-14T08:46:39;14.68;;;5.88;;
68089;SDS011;54880;50.986;6.990;2023-05-14T08:49:14;9.33;;;5.50;;
68089;SDS011;54880;50.986;6.990;2023-05-14T08:51:42;9.70;;;6.10;;
68089;SDS011;54880;50.986;6.990;2023-05-14T08:54:07;11.52;;;5.28;;
68089;SDS011;54880;50.986;6.990;2023-05-14T08:56:34;10.25;;;5.10;;
68089;SDS011;54880;50.986;6.990;2023-05-14T08:59:00;9.33;;;4.90;;
68089;SDS011;54880;50.986;6.990;2023-05-14T09:01:25;9.50;;;5.50;;
68089;SDS011;54880;50.986;6.990;2023-05-14T09:03:50;9.60;;;5.20;;
68089;SDS011;54880;50.986;6.990;2023-05-14T09:06:17;8.27;;;4.65;;
68089;SDS011;54880;50.986;6.990;2023-05-14T09:08:42;10.20;;;5.00;;
68089;SDS011;54880;50.986;6.990;2023-05-14T09:11:08;9.55;;;5.10;;
68089;SDS011;54880;50.986;6.990;2023-05-14T09:13:35;9.13;;;5.38;;
68089;SDS011;54880;50.986;6.990;2023-05-14T09:16:00;8.48;;;4.45;;
68089;SDS011;54880;50.986;6.990;2023-05-14T09:18:26;9.35;;;4.60;;
68089;SDS011;54880;50.986;6.990;2023-05-14T09:20:51;8.23;;;4.93;;
68089;SDS011;54880;50.986;6.990;2023-05-14T09:23:16;8.50;;;5.00;;
68089;SDS011;54880;50.986;6.990;2023-05-14T09:25:42;8.37;;;4.50;;
68089;SDS011;54880;50.986;6.990;2023-05-14T09:28:07;9.30;;;4.47;;
68089;SDS011;54880;50.986;6.990;2023-05-14T09:30:33;8.37;;;4.80;;
68089;SDS011;54880;50.986;6.990;2023-05-14T09:32:59;8.50;;;4.47;;
68089;SDS011;54880;50.986;6.990;2023-05-14T09:35:24;7.70;;;4.43;;
68089;SDS011;54880;50.986;6.990;2023-05-14T09:37:50;10.13;;;5.17;;
68089;SDS011;54880;50.986;6.990;2023-05-14T09:40:17;8.98;;;4.80;;
68089;SDS011;54880;50.986;6.990;2023-05-14T09:42:42;10.07;;;4.47;;
68089;SDS011;54880;50.986;6.990;2023-05-14T09:45:08;7.70;;;4.60;;
68089;SDS011;54880;50.986;6.990;2023-05-14T09:47:34;8.68;;;5.03;;
68089;SDS011;54880;50.986;6.990;2023-05-14T09:49:59;7.83;;;5.10;;
68089;SDS011;54880;50.986;6.990;2023-05-14T09:52:24;8.83;;;5.03;;
68089;SDS011;54880;50.986;6.990;2023-05-14T09:54:53;8.95;;;4.53;;
68089;SDS011;54880;50.986;6.990;2023-05-14T09:57:19;7.20;;;4.50;;
68089;SDS011;54880;50.986;6.990;2023-05-14T09:59:44;9.55;;;4.50;;
68089;SDS011;54880;50.986;6.990;2023-05-14T10:02:19;10.57;;;4.50;;
68089;SDS011;54880;50.986;6.990;2023-05-14T10:04:46;10.43;;;5.15;;
68089;SDS011;54880;50.986;6.990;2023-05-14T10:07:11;9.88;;;6.18;;
68089;SDS011;54880;50.986;6.990;2023-05-14T10:09:37;12.27;;;7.70;;
68089;SDS011;54880;50.986;6.990;2023-05-14T10:12:05;12.40;;;8.15;;
68089;SDS011;54880;50.986;6.990;2023-05-14T10:14:36;12.70;;;7.35;;
68089;SDS011;54880;50.986;6.990;2023-05-14T10:17:02;11.80;;;7.70;;
68089;SDS011;54880;50.986;6.990;2023-05-14T10:19:30;10.85;;;6.93;;
68089;SDS011;54880;50.986;6.990;2023-05-14T10:22:00;11.18;;;7.72;;
68089;SDS011;54880;50.986;6.990;2023-05-14T10:24:27;13.18;;;8.32;;
68089;SDS011;54880;50.986;6.990;2023-05-14T10:26:52;12.63;;;7.20;;
68089;SDS011;54880;50.986;6.990;2023-05-14T10:29:18;13.83;;;7.60;;
68089;SDS011;54880;50.986;6.990;2023-05-14T10:31:44;12.00;;;6.77;;
68089;SDS011;54880;50.986;6.990;2023-05-14T10:36:53;11.63;;;7.32;;
68089;SDS011;54880;50.986;6.990;2023-05-14T10:39:22;11.98;;;6.47;;
68089;SDS011;54880;50.986;6.990;2023-05-14T10:41:48;9.00;;;5.97;;
68089;SDS011;54880;50.986;6.990;2023-05-14T10:44:13;10.43;;;6.03;;
68089;SDS011;54880;50.986;6.990;2023-05-14T10:46:39;10.35;;;6.00;;
68089;SDS011;54880;50.986;6.990;2023-05-14T10:49:04;11.40;;;6.07;;
68089;SDS011;54880;50.986;6.990;2023-05-14T10:51:29;10.83;;;6.40;;
68089;SDS011;54880;50.986;6.990;2023-05-14T10:53:57;10.65;;;6.80;;
68089;SDS011;54880;50.986;6.990;2023-05-14T10:56:25;11.33;;;7.13;;
68089;SDS011;54880;50.986;6.990;2023-05-14T10:58:50;11.80;;;7.40;;
68089;SDS011;54880;50.986;6.990;2023-05-14T11:01:15;10.13;;;6.87;;
68089;SDS011;54880;50.986;6.990;2023-05-14T11:03:42;12.13;;;6.70;;
68089;SDS011;54880;50.986;6.990;2023-05-14T11:06:08;11.93;;;7.10;;
68089;SDS011;54880;50.986;6.990;2023-05-14T11:08:34;12.07;;;8.70;;
68089;SDS011;54880;50.986;6.990;2023-05-14T11:11:00;10.93;;;6.85;;
68089;SDS011;54880;50.986;6.990;2023-05-14T11:13:26;11.33;;;6.70;;
68089;SDS011;54880;50.986;6.990;2023-05-14T11:15:51;12.07;;;7.80;;
68089;SDS011;54880;50.986;6.990;2023-05-14T11:18:29;11.65;;;6.88;;
68089;SDS011;54880;50.986;6.990;2023-05-14T11:20:58;8.85;;;5.20;;
68089;SDS011;54880;50.986;6.990;2023-05-14T11:23:24;8.30;;;4.93;;
68089;SDS011;54880;50.986;6.990;2023-05-14T11:25:50;9.60;;;4.73;;
68089;SDS011;54880;50.986;6.990;2023-05-14T11:28:15;9.27;;;4.88;;
68089;SDS011;54880;50.986;6.990;2023-05-14T11:30:41;9.57;;;5.53;;
68089;SDS011;54880;50.986;6.990;2023-05-14T11:33:07;10.75;;;5.05;;
68089;SDS011;54880;50.986;6.990;2023-05-14T11:35:32;9.37;;;5.10;;
68089;SDS011;54880;50.986;6.990;2023-05-14T11:37:57;9.00;;;4.90;;
68089;SDS011;54880;50.986;6.990;2023-05-14T11:40:22;9.07;;;4.93;;
68089;SDS011;54880;50.986;6.990;2023-05-14T11:42:49;9.63;;;4.73;;
68089;SDS011;54880;50.986;6.990;2023-05-14T11:45:22;9.23;;;4.70;;
68089;SDS011;54880;50.986;6.990;2023-05-14T11:47:49;8.38;;;4.57;;
68089;SDS011;54880;50.986;6.990;2023-05-14T11:50:15;9.03;;;4.80;;
68089;SDS011;54880;50.986;6.990;2023-05-14T11:52:40;14.07;;;5.17;;
68089;SDS011;54880;50.986;6.990;2023-05-14T11:55:09;8.30;;;5.40;;
68089;SDS011;54880;50.986;6.990;2023-05-14T11:57:35;11.23;;;5.70;;
68089;SDS011;54880;50.986;6.990;2023-05-14T12:00:00;11.27;;;5.65;;
68089;SDS011;54880;50.986;6.990;2023-05-14T12:02:26;9.27;;;5.53;;
68089;SDS011;54880;50.986;6.990;2023-05-14T12:04:53;9.17;;;5.23;;
68089;SDS011;54880;50.986;6.990;2023-05-14T12:07:18;10.18;;;4.70;;
68089;SDS011;54880;50.986;6.990;2023-05-14T12:09:44;9.40;;;4.47;;
68089;SDS011;54880;50.986;6.990;2023-05-14T12:12:14;10.10;;;5.90;;
68089;SDS011;54880;50.986;6.990;2023-05-14T12:14:40;9.63;;;6.10;;
68089;SDS011;54880;50.986;6.990;2023-05-14T12:19:41;8.80;;;5.22;;
68089;SDS011;54880;50.986;6.990;2023-05-14T12:22:07;8.43;;;5.07;;
68089;SDS011;54880;50.986;6.990;2023-05-14T12:24:32;10.20;;;5.33;;
68089;SDS011;54880;50.986;6.990;2023-05-14T12:26:59;10.53;;;5.13;;
68089;SDS011;54880;50.986;6.990;2023-05-14T12:29:25;8.25;;;4.80;;
68089;SDS011;54880;50.986;6.990;2023-05-14T12:31:50;10.37;;;4.67;;
68089;SDS011;54880;50.986;6.990;2023-05-14T12:34:15;7.97;;;4.10;;
68089;SDS011;54880;50.986;6.990;2023-05-14T12:36:41;7.00;;;3.87;;
68089;SDS011;54880;50.986;6.990;2023-05-14T12:39:06;7.45;;;3.58;;
68089;SDS011;54880;50.986;6.990;2023-05-14T12:41:32;7.03;;;3.50;;
68089;SDS011;54880;50.986;6.990;2023-05-14T12:43:57;7.03;;;3.00;;
68089;SDS011;54880;50.986;6.990;2023-05-14T12:46:23;8.00;;;3.20;;
68089;SDS011;54880;50.986;6.990;2023-05-14T12:48:49;7.32;;;3.03;;
68089;SDS011;54880;50.986;6.990;2023-05-14T12:51:14;7.47;;;3.07;;
68089;SDS011;54880;50.986;6.990;2023-05-14T12:53:40;7.30;;;3.40;;
68089;SDS011;54880;50.986;6.990;2023-05-14T12:56:05;6.37;;;3.20;;
68089;SDS011;54880;50.986;6.990;2023-05-14T12:58:30;7.60;;;3.10;;
68089;SDS011;54880;50.986;6.990;2023-05-14T13:00:56;7.97;;;2.90;;
68089;SDS011;54880;50.986;6.990;2023-05-14T13:03:21;9.17;;;3.33;;
68089;SDS011;54880;50.986;6.990;2023-05-14T13:05:46;7.30;;;3.27;;
68089;SDS011;54880;50.986;6.990;2023-05-14T13:08:12;11.03;;;3.00;;
68089;SDS011;54880;50.986;6.990;2023-05-14T13:10:41;7.22;;;2.80;;
68089;SDS011;54880;50.986;6.990;2023-05-14T13:13:07;6.97;;;3.20;;
68089;SDS011;54880;50.986;6.990;2023-05-14T13:15:32;7.07;;;3.05;;
68089;SDS011;54880;50.986;6.990;2023-05-14T13:17:57;7.82;;;3.10;;
68089;SDS011;54880;50.986;6.990;2023-05-14T13:20:23;7.50;;;2.90;;
68089;SDS011;54880;50.986;6.990;2023-05-14T13:22:49;7.70;;;3.00;;
68089;SDS011;54880;50.986;6.990;2023-05-14T13:25:15;7.28;;;3.55;;
68089;SDS011;54880;50.986;6.990;2023-05-14T13:27:40;7.07;;;3.10;;
68089;SDS011;54880;50.986;6.990;2023-05-14T13:30:05;8.17;;;3.20;;
68089;SDS011;54880;50.986;6.990;2023-05-14T13:32:31;6.90;;;3.37;;
68089;SDS011;54880;50.986;6.990;2023-05-14T13:34:56;6.57;;;3.43;;
68089;SDS011;54880;50.986;6.990;2023-05-14T13:37:21;7.30;;;3.23;;
68089;SDS011;54880;50.986;6.990;2023-05-14T13:39:47;6.60;;;2.70;;
68089;SDS011;54880;50.986;6.990;2023-05-14T13:42:12;6.17;;;2.73;;
68089;SDS011;54880;50.986;6.990;2023-05-14T13:44:37;5.77;;;2.50;;
68089;SDS011;54880;50.986;6.990;2023-05-14T13:47:02;6.27;;;2.83;;
68089;SDS011;54880;50.986;6.990;2023-05-14T13:49:28;5.78;;;3.00;;
68089;SDS011;54880;50.986;6.990;2023-05-14T13:51:53;5.97;;;2.80;;
68089;SDS011;54880;50.986;6.990;2023-05-14T13:54:18;7.60;;;2.97;;
68089;SDS011;54880;50.986;6.990;2023-05-14T13:56:44;7.63;;;3.50;;
68089;SDS011;54880;50.986;6.990;2023-05-14T13:59:09;7.23;;;2.93;;
68089;SDS011;54880;50.986;6.990;2023-05-14T14:01:35;6.97;;;3.05;;
68089;SDS011;54880;50.986;6.990;2023-05-14T14:04:00;6.70;;;3.20;;
68089;SDS011;54880;50.986;6.990;2023-05-14T14:06:25;6.53;;;3.37;;
68089;SDS011;54880;50.986;6.990;2023-05-14T14:08:53;16.80;;;10.65;;
68089;SDS011;54880;50.986;6.990;2023-05-14T14:11:19;9.17;;;4.77;;
68089;SDS011;54880;50.986;6.990;2023-05-14T14:13:44;10.17;;;5.70;;
68089;SDS011;54880;50.986;6.990;2023-05-14T14:16:10;8.40;;;3.20;;
68089;SDS011;54880;50.986;6.990;2023-05-14T14:18:35;6.57;;;3.00;;
68089;SDS011;54880;50.986;6.990;2023-05-14T14:21:00;7.37;;;3.00;;
68089;SDS011;54880;50.986;6.990;2023-05-14T14:23:25;7.97;;;3.13;;
68089;SDS011;54880;50.986;6.990;2023-05-14T14:25:51;6.07;;;2.80;;
68089;SDS011;54880;50.986;6.990;2023-05-14T14:28:16;7.10;;;3.00;;
68089;SDS011;54880;50.986;6.990;2023-05-14T14:30:41;6.93;;;2.97;;
68089;SDS011;54880;50.986;6.990;2023-05-14T14:33:08;8.05;;;3.15;;
68089;SDS011;54880;50.986;6.990;2023-05-14T14:35:33;6.73;;;3.40;;
68089;SDS011;54880;50.986;6.990;2023-05-14T14:37:59;8.10;;;3.05;;